sensor_id;sensor_type;location;lat;lon;timestamp;pressure;altitude;pressure_sealevel;temperature;humidity
17785;BME280;9016;53.582;10.062;2022-12-20T00:00:59;101330.44;;;9.41;83.79
17785;BME280;9016;53.582;10.062;2022-12-20T00:03:27;101340.81;;;9.47;84.75
17785;BME280;9016;53.582;10.062;2022-12-20T00:05:55;101332.56;;;9.53;83.87
17785;BME280;9016;53.582;10.062;2022-12-20T00:08:23;101333.19;;;9.58;84.04
17785;BME280;9016;53.582;10.062;2022-12-20T00:10:51;101308.09;;;9.63;84.10
17785;BME280;9016;53.582;10.062;2022-12-20T00:13:19;101311.56;;;9.65;83.42
17785;BME280;9016;53.582;10.062;2022-12-20T00:15:49;101311.19;;;9.73;82.96
17785;BME280;9016;53.582;10.062;2022-12-20T00:18:17;101309.31;;;9.75;83.07
17785;BME280;9016;53.582;10.062;2022-12-20T00:20:45;101311.75;;;9.79;82.51
17785;BME280;9016;53.582;10.062;2022-12-20T00:23:13;101306.03;;;9.70;83.05
17785;BME280;9016;53.582;10.062;2022-12-20T00:25:41;101310.56;;;9.68;83.49
17785;BME280;9016;53.582;10.062;2022-12-20T00:28:09;101294.44;;;9.71;83.95
17785;BME280;9016;53.582;10.062;2022-12-20T00:30:37;101296.03;;;9.75;83.50
17785;BME280;9016;53.582;10.062;2022-12-20T00:33:06;101310.31;;;9.72;82.66
17785;BME280;9016;53.582;10.062;2022-12-20T00:35:34;101309.31;;;9.75;83.26
17785;BME280;9016;53.582;10.062;2022-12-20T00:38:02;101317.31;;;9.75;83.19
17785;BME280;9016;53.582;10.062;2022-12-20T00:40:30;101314.91;;;9.87;83.93
17785;BME280;9016;53.582;10.062;2022-12-20T00:42:58;101307.72;;;9.89;83.24
17785;BME280;9016;53.582;10.062;2022-12-20T00:45:26;101308.59;;;9.90;82.98
17785;BME280;9016;53.582;10.062;2022-12-20T00:47:54;101298.31;;;9.82;82.70
17785;BME280;9016;53.582;10.062;2022-12-20T00:50:23;101306.06;;;9.87;83.52
17785;BME280;9016;53.582;10.062;2022-12-20T00:52:51;101296.09;;;9.73;83.71
17785;BME280;9016;53.582;10.062;2022-12-20T00:55:20;101295.22;;;9.73;84.03
17785;BME280;9016;53.582;10.062;2022-12-20T00:57:48;101290.78;;;9.73;84.23
17785;BME280;9016;53.582;10.062;2022-12-20T01:00:17;101291.06;;;9.67;84.50
17785;BME280;9016;53.582;10.062;2022-12-20T01:02:45;101290.97;;;9.69;84.17
17785;BME280;9016;53.582;10.062;2022-12-20T01:05:13;101283.78;;;9.71;84.68
17785;BME280;9016;53.582;10.062;2022-12-20T01:07:43;101284.75;;;9.70;85.08
17785;BME280;9016;53.582;10.062;2022-12-20T01:10:11;101277.31;;;9.76;84.82
17785;BME280;9016;53.582;10.062;2022-12-20T01:12:39;101287.09;;;9.76;83.99
17785;BME280;9016;53.582;10.062;2022-12-20T01:15:08;101281.28;;;9.68;84.74
17785;BME280;9016;53.582;10.062;2022-12-20T01:17:36;101290.00;;;9.71;84.63
17785;BME280;9016;53.582;10.062;2022-12-20T01:20:06;101288.41;;;9.67;84.73
17785;BME280;9016;53.582;10.062;2022-12-20T01:22:34;101289.34;;;9.66;84.70
17785;BME280;9016;53.582;10.062;2022-12-20T01:25:09;101298.84;;;9.72;85.35
17785;BME280;9016;53.582;10.062;2022-12-20T01:27:37;101294.06;;;9.78;84.95
17785;BME280;9016;53.582;10.062;2022-12-20T01:30:06;101295.50;;;9.85;84.64
17785;BME280;9016;53.582;10.062;2022-12-20T01:32:34;101290.88;;;9.89;84.23
17785;BME280;9016;53.582;10.062;2022-12-20T01:35:02;101285.28;;;9.95;84.10
17785;BME280;9016;53.582;10.062;2022-12-20T01:37:30;101289.50;;;9.99;83.66
17785;BME280;9016;53.582;10.062;2022-12-20T01:39:58;101288.47;;;10.01;84.05
17785;BME280;9016;53.582;10.062;2022-12-20T01:42:28;101286.97;;;9.96;83.36
17785;BME280;9016;53.582;10.062;2022-12-20T01:44:58;101290.13;;;10.04;83.77
17785;BME280;9016;53.582;10.062;2022-12-20T01:47:29;101284.72;;;10.06;83.10
17785;BME280;9016;53.582;10.062;2022-12-20T01:50:00;101275.91;;;10.05;83.70
17785;BME280;9016;53.582;10.062;2022-12-20T01:52:32;101278.63;;;10.03;83.53
17785;BME280;9016;53.582;10.062;2022-12-20T01:55:06;101267.06;;;10.05;83.85
17785;BME280;9016;53.582;10.062;2022-12-20T01:57:41;101266.78;;;10.11;83.87
17785;BME280;9016;53.582;10.062;2022-12-20T02:00:10;101265.25;;;10.05;83.37
17785;BME280;9016;53.582;10.062;2022-12-20T02:02:39;101258.97;;;10.06;84.12
17785;BME280;9016;53.582;10.062;2022-12-20T02:05:08;101258.84;;;10.09;84.29
17785;BME280;9016;53.582;10.062;2022-12-20T02:07:37;101260.34;;;10.15;84.11
17785;BME280;9016;53.582;10.062;2022-12-20T02:10:07;101257.47;;;10.19;83.88
17785;BME280;9016;53.582;10.062;2022-12-20T02:12:39;101258.00;;;10.26;83.86
17785;BME280;9016;53.582;10.062;2022-12-20T02:15:23;101262.63;;;10.22;84.18
17785;BME280;9016;53.582;10.062;2022-12-20T02:20:53;101261.31;;;10.31;84.76
17785;BME280;9016;53.582;10.062;2022-12-20T02:23:40;101250.41;;;10.35;84.23
17785;BME280;9016;53.582;10.062;2022-12-20T02:26:36;101251.28;;;10.36;84.36
17785;BME280;9016;53.582;10.062;2022-12-20T02:29:24;101260.69;;;10.43;84.24
17785;BME280;9016;53.582;10.062;2022-12-20T02:31:59;101251.59;;;10.47;85.66
17785;BME280;9016;53.582;10.062;2022-12-20T02:34:32;101245.16;;;10.51;85.15
17785;BME280;9016;53.582;10.062;2022-12-20T02:37:01;101244.00;;;10.56;84.58
17785;BME280;9016;53.582;10.062;2022-12-20T02:39:31;101251.81;;;10.59;84.21
17785;BME280;9016;53.582;10.062;2022-12-20T02:42:03;101247.09;;;10.64;84.39
17785;BME280;9016;53.582;10.062;2022-12-20T02:44:34;101242.03;;;10.60;84.42
17785;BME280;9016;53.582;10.062;2022-12-20T02:47:26;101225.78;;;10.64;84.94
17785;BME280;9016;53.582;10.062;2022-12-20T02:49:56;101231.19;;;10.63;84.93
17785;BME280;9016;53.582;10.062;2022-12-20T02:52:26;101230.09;;;10.67;84.79
17785;BME280;9016;53.582;10.062;2022-12-20T02:54:57;101234.22;;;10.72;84.97
17785;BME280;9016;53.582;10.062;2022-12-20T02:57:28;101230.66;;;10.73;84.73
17785;BME280;9016;53.582;10.062;2022-12-20T03:00:02;101224.59;;;10.70;84.94
17785;BME280;9016;53.582;10.062;2022-12-20T03:02:32;101225.75;;;10.81;85.33
17785;BME280;9016;53.582;10.062;2022-12-20T03:05:23;101219.13;;;10.88;84.70
17785;BME280;9016;53.582;10.062;2022-12-20T03:07:52;101226.91;;;10.93;84.74
17785;BME280;9016;53.582;10.062;2022-12-20T03:10:20;101225.25;;;10.90;84.65
17785;BME280;9016;53.582;10.062;2022-12-20T03:13:01;101223.28;;;10.94;84.89
17785;BME280;9016;53.582;10.062;2022-12-20T03:15:29;101211.69;;;10.95;85.42
17785;BME280;9016;53.582;10.062;2022-12-20T03:17:58;101217.38;;;11.05;84.89
17785;BME280;9016;53.582;10.062;2022-12-20T03:20:26;101220.56;;;10.95;84.96
17785;BME280;9016;53.582;10.062;2022-12-20T03:22:54;101224.69;;;11.01;85.16
17785;BME280;9016;53.582;10.062;2022-12-20T03:25:22;101230.16;;;10.98;85.37
17785;BME280;9016;53.582;10.062;2022-12-20T03:27:51;101231.41;;;11.08;84.91
17785;BME280;9016;53.582;10.062;2022-12-20T03:30:19;101224.19;;;11.10;84.53
17785;BME280;9016;53.582;10.062;2022-12-20T03:32:47;101225.03;;;11.11;84.29
17785;BME280;9016;53.582;10.062;2022-12-20T03:35:16;101206.22;;;11.14;84.15
17785;BME280;9016;53.582;10.062;2022-12-20T03:37:44;101214.13;;;11.15;84.23
17785;BME280;9016;53.582;10.062;2022-12-20T03:40:13;101214.53;;;11.08;84.18
17785;BME280;9016;53.582;10.062;2022-12-20T03:42:41;101216.19;;;11.10;84.34
17785;BME280;9016;53.582;10.062;2022-12-20T03:45:09;101226.22;;;11.05;84.41
17785;BME280;9016;53.582;10.062;2022-12-20T03:47:37;101226.00;;;11.10;84.42
17785;BME280;9016;53.582;10.062;2022-12-20T03:50:06;101218.50;;;11.16;84.05
17785;BME280;9016;53.582;10.062;2022-12-20T03:52:36;101221.53;;;11.10;83.91
17785;BME280;9016;53.582;10.062;2022-12-20T03:55:05;101222.22;;;11.14;84.05
17785;BME280;9016;53.582;10.062;2022-12-20T03:57:33;101208.44;;;11.06;84.40
17785;BME280;9016;53.582;10.062;2022-12-20T04:00:02;101206.34;;;11.11;84.59
17785;BME280;9016;53.582;10.062;2022-12-20T04:02:30;101213.16;;;11.16;84.59
17785;BME280;9016;53.582;10.062;2022-12-20T04:04:59;101209.66;;;11.16;84.33
17785;BME280;9016;53.582;10.062;2022-12-20T04:07:27;101213.09;;;11.18;83.85
17785;BME280;9016;53.582;10.062;2022-12-20T04:09:56;101216.69;;;11.17;83.95
17785;BME280;9016;53.582;10.062;2022-12-20T04:12:24;101211.97;;;11.22;83.97
17785;BME280;9016;53.582;10.062;2022-12-20T04:14:52;101215.41;;;11.24;82.96
17785;BME280;9016;53.582;10.062;2022-12-20T04:17:20;101211.03;;;11.23;83.73
17785;BME280;9016;53.582;10.062;2022-12-20T04:19:49;101220.50;;;11.28;83.13
17785;BME280;9016;53.582;10.062;2022-12-20T04:22:17;101211.31;;;11.34;83.00
17785;BME280;9016;53.582;10.062;2022-12-20T04:24:45;101205.19;;;11.32;82.97
17785;BME280;9016;53.582;10.062;2022-12-20T04:27:15;101214.41;;;11.26;82.36
17785;BME280;9016;53.582;10.062;2022-12-20T04:29:43;101209.16;;;11.25;82.97
17785;BME280;9016;53.582;10.062;2022-12-20T04:32:11;101206.56;;;11.23;82.99
17785;BME280;9016;53.582;10.062;2022-12-20T04:34:39;101206.56;;;11.23;82.76
17785;BME280;9016;53.582;10.062;2022-12-20T04:37:07;101204.59;;;11.27;83.05
17785;BME280;9016;53.582;10.062;2022-12-20T04:39:35;101208.97;;;11.28;83.16
17785;BME280;9016;53.582;10.062;2022-12-20T04:42:03;101192.72;;;11.32;83.06
17785;BME280;9016;53.582;10.062;2022-12-20T04:44:32;101202.59;;;11.30;82.66
17785;BME280;9016;53.582;10.062;2022-12-20T04:47:00;101197.97;;;11.34;82.71
17785;BME280;9016;53.582;10.062;2022-12-20T04:49:29;101200.69;;;11.17;82.88
17785;BME280;9016;53.582;10.062;2022-12-20T04:51:56;101193.47;;;11.19;83.21
17785;BME280;9016;53.582;10.062;2022-12-20T04:54:45;101204.06;;;11.20;83.26
17785;BME280;9016;53.582;10.062;2022-12-20T04:57:12;101203.19;;;11.20;83.22
17785;BME280;9016;53.582;10.062;2022-12-20T04:59:41;101202.06;;;11.24;83.26
17785;BME280;9016;53.582;10.062;2022-12-20T05:02:09;101197.09;;;11.18;83.97
17785;BME280;9016;53.582;10.062;2022-12-20T05:04:38;101200.59;;;11.18;84.21
17785;BME280;9016;53.582;10.062;2022-12-20T05:07:05;101201.66;;;11.16;85.16
17785;BME280;9016;53.582;10.062;2022-12-20T05:09:33;101202.44;;;11.18;85.50
17785;BME280;9016;53.582;10.062;2022-12-20T05:12:01;101200.50;;;11.20;86.02
17785;BME280;9016;53.582;10.062;2022-12-20T05:14:29;101199.81;;;11.16;86.22
17785;BME280;9016;53.582;10.062;2022-12-20T05:16:59;101198.22;;;11.14;86.94
17785;BME280;9016;53.582;10.062;2022-12-20T05:19:27;101195.69;;;11.11;87.74
17785;BME280;9016;53.582;10.062;2022-12-20T05:21:55;101198.44;;;11.09;88.35
17785;BME280;9016;53.582;10.062;2022-12-20T05:24:39;101185.28;;;11.06;88.61
17785;BME280;9016;53.582;10.062;2022-12-20T05:27:25;101189.25;;;10.99;89.08
17785;BME280;9016;53.582;10.062;2022-12-20T05:29:53;101185.03;;;10.95;89.12
17785;BME280;9016;53.582;10.062;2022-12-20T05:32:23;101187.78;;;10.93;90.23
17785;BME280;9016;53.582;10.062;2022-12-20T05:34:51;101190.03;;;11.01;89.64
17785;BME280;9016;53.582;10.062;2022-12-20T05:37:19;101178.31;;;11.04;89.98
17785;BME280;9016;53.582;10.062;2022-12-20T05:39:47;101183.50;;;11.07;89.63
17785;BME280;9016;53.582;10.062;2022-12-20T05:42:16;101181.06;;;11.02;90.02
17785;BME280;9016;53.582;10.062;2022-12-20T05:44:43;101174.88;;;11.02;90.10
17785;BME280;9016;53.582;10.062;2022-12-20T05:47:11;101174.78;;;11.03;90.17
17785;BME280;9016;53.582;10.062;2022-12-20T05:49:41;101167.22;;;10.95;90.30
17785;BME280;9016;53.582;10.062;2022-12-20T05:52:08;101180.19;;;11.02;90.89
17785;BME280;9016;53.582;10.062;2022-12-20T05:54:36;101180.63;;;10.94;90.83
17785;BME280;9016;53.582;10.062;2022-12-20T05:57:04;101172.78;;;10.91;91.45
17785;BME280;9016;53.582;10.062;2022-12-20T05:59:32;101174.94;;;10.84;90.46
17785;BME280;9016;53.582;10.062;2022-12-20T06:02:00;101163.41;;;10.84;91.27
17785;BME280;9016;53.582;10.062;2022-12-20T06:04:31;101176.66;;;10.85;91.36
17785;BME280;9016;53.582;10.062;2022-12-20T06:07:00;101178.53;;;10.83;91.04
17785;BME280;9016;53.582;10.062;2022-12-20T06:09:28;101189.47;;;10.79;91.46
17785;BME280;9016;53.582;10.062;2022-12-20T06:11:56;101189.28;;;10.82;91.32
17785;BME280;9016;53.582;10.062;2022-12-20T06:14:24;101183.97;;;10.82;91.73
17785;BME280;9016;53.582;10.062;2022-12-20T06:16:52;101189.13;;;10.85;92.00
17785;BME280;9016;53.582;10.062;2022-12-20T06:19:20;101196.34;;;10.83;91.91
17785;BME280;9016;53.582;10.062;2022-12-20T06:21:48;101206.31;;;10.79;92.37
17785;BME280;9016;53.582;10.062;2022-12-20T06:24:17;101202.84;;;10.77;92.64
17785;BME280;9016;53.582;10.062;2022-12-20T06:26:46;101198.56;;;10.75;93.20
17785;BME280;9016;53.582;10.062;2022-12-20T06:29:14;101190.66;;;10.73;94.54
17785;BME280;9016;53.582;10.062;2022-12-20T06:31:43;101193.66;;;10.83;95.23
17785;BME280;9016;53.582;10.062;2022-12-20T06:34:11;101197.38;;;10.80;95.09
17785;BME280;9016;53.582;10.062;2022-12-20T06:36:39;101199.78;;;10.85;95.79
17785;BME280;9016;53.582;10.062;2022-12-20T06:39:07;101196.63;;;10.94;95.96
17785;BME280;9016;53.582;10.062;2022-12-20T06:41:38;101181.56;;;10.93;96.84
17785;BME280;9016;53.582;10.062;2022-12-20T06:44:07;101176.06;;;10.96;96.57
17785;BME280;9016;53.582;10.062;2022-12-20T06:46:35;101179.41;;;10.99;96.77
17785;BME280;9016;53.582;10.062;2022-12-20T06:49:03;101167.03;;;10.98;96.32
17785;BME280;9016;53.582;10.062;2022-12-20T06:51:30;101174.03;;;11.01;96.75
17785;BME280;9016;53.582;10.062;2022-12-20T06:53:59;101173.66;;;11.07;95.93
17785;BME280;9016;53.582;10.062;2022-12-20T06:56:27;101179.09;;;11.06;96.08
17785;BME280;9016;53.582;10.062;2022-12-20T06:58:56;101191.13;;;11.13;96.20
17785;BME280;9016;53.582;10.062;2022-12-20T07:01:25;101196.47;;;11.13;96.06
17785;BME280;9016;53.582;10.062;2022-12-20T07:03:53;101188.56;;;11.11;96.12
17785;BME280;9016;53.582;10.062;2022-12-20T07:06:21;101191.03;;;11.14;95.69
17785;BME280;9016;53.582;10.062;2022-12-20T07:08:49;101192.78;;;11.15;95.37
17785;BME280;9016;53.582;10.062;2022-12-20T07:11:17;101195.53;;;11.14;95.28
17785;BME280;9016;53.582;10.062;2022-12-20T07:13:45;101191.91;;;11.15;95.13
17785;BME280;9016;53.582;10.062;2022-12-20T07:16:14;101188.84;;;11.07;96.14
17785;BME280;9016;53.582;10.062;2022-12-20T07:18:42;101199.22;;;11.11;96.65
17785;BME280;9016;53.582;10.062;2022-12-20T07:21:11;101209.66;;;11.16;96.36
17785;BME280;9016;53.582;10.062;2022-12-20T07:23:42;101203.19;;;11.04;96.60
17785;BME280;9016;53.582;10.062;2022-12-20T07:26:10;101196.88;;;11.05;97.03
17785;BME280;9016;53.582;10.062;2022-12-20T07:28:38;101190.34;;;10.95;97.65
17785;BME280;9016;53.582;10.062;2022-12-20T07:31:06;101197.16;;;11.01;97.94
17785;BME280;9016;53.582;10.062;2022-12-20T07:33:36;101187.19;;;11.04;97.62
17785;BME280;9016;53.582;10.062;2022-12-20T07:36:05;101179.38;;;11.01;97.65
17785;BME280;9016;53.582;10.062;2022-12-20T07:38:34;101179.28;;;11.03;98.09
17785;BME280;9016;53.582;10.062;2022-12-20T07:41:05;101174.03;;;11.01;98.37
17785;BME280;9016;53.582;10.062;2022-12-20T07:43:34;101171.09;;;11.06;98.14
17785;BME280;9016;53.582;10.062;2022-12-20T07:46:03;101168.69;;;11.01;98.10
17785;BME280;9016;53.582;10.062;2022-12-20T07:48:32;101162.31;;;10.88;98.35
17785;BME280;9016;53.582;10.062;2022-12-20T07:51:05;101175.22;;;10.95;98.66
17785;BME280;9016;53.582;10.062;2022-12-20T07:53:35;101177.44;;;10.87;98.68
17785;BME280;9016;53.582;10.062;2022-12-20T07:56:06;101181.66;;;10.91;99.02
17785;BME280;9016;53.582;10.062;2022-12-20T07:58:36;101182.00;;;10.85;99.80
17785;BME280;9016;53.582;10.062;2022-12-20T08:01:06;101167.19;;;10.80;99.86
17785;BME280;9016;53.582;10.062;2022-12-20T08:03:39;101160.91;;;10.81;99.77
17785;BME280;9016;53.582;10.062;2022-12-20T08:06:11;101159.69;;;10.86;99.16
17785;BME280;9016;53.582;10.062;2022-12-20T08:08:42;101153.63;;;10.84;99.20
17785;BME280;9016;53.582;10.062;2022-12-20T08:11:13;101157.66;;;10.91;98.67
17785;BME280;9016;53.582;10.062;2022-12-20T08:13:43;101160.34;;;10.91;98.33
17785;BME280;9016;53.582;10.062;2022-12-20T08:16:14;101160.25;;;10.93;97.74
17785;BME280;9016;53.582;10.062;2022-12-20T08:18:42;101164.56;;;10.95;97.50
17785;BME280;9016;53.582;10.062;2022-12-20T08:21:11;101161.13;;;10.93;97.03
17785;BME280;9016;53.582;10.062;2022-12-20T08:23:40;101163.69;;;10.95;96.95
17785;BME280;9016;53.582;10.062;2022-12-20T08:26:08;101158.72;;;11.05;96.59
17785;BME280;9016;53.582;10.062;2022-12-20T08:28:36;101159.50;;;11.07;95.64
17785;BME280;9016;53.582;10.062;2022-12-20T08:31:08;101144.50;;;11.04;95.63
17785;BME280;9016;53.582;10.062;2022-12-20T08:33:36;101137.03;;;11.11;95.39
17785;BME280;9016;53.582;10.062;2022-12-20T08:36:08;101144.25;;;11.09;94.78
17785;BME280;9016;53.582;10.062;2022-12-20T08:38:39;101140.47;;;11.13;94.46
17785;BME280;9016;53.582;10.062;2022-12-20T08:41:09;101132.22;;;11.17;94.14
17785;BME280;9016;53.582;10.062;2022-12-20T08:43:37;101133.56;;;11.09;93.82
17785;BME280;9016;53.582;10.062;2022-12-20T08:46:07;101133.25;;;11.15;93.12
17785;BME280;9016;53.582;10.062;2022-12-20T08:48:35;101140.66;;;11.10;93.95
17785;BME280;9016;53.582;10.062;2022-12-20T08:51:06;101140.03;;;11.20;92.88
17785;BME280;9016;53.582;10.062;2022-12-20T08:53:35;101140.63;;;11.25;92.67
17785;BME280;9016;53.582;10.062;2022-12-20T08:56:07;101142.72;;;11.36;91.95
17785;BME280;9016;53.582;10.062;2022-12-20T08:58:36;101128.06;;;11.27;91.17
17785;BME280;9016;53.582;10.062;2022-12-20T09:01:06;101146.59;;;11.30;91.25
17785;BME280;9016;53.582;10.062;2022-12-20T09:03:35;101131.88;;;11.23;90.93
17785;BME280;9016;53.582;10.062;2022-12-20T09:06:05;101118.84;;;11.33;91.29
17785;BME280;9016;53.582;10.062;2022-12-20T09:08:33;101117.25;;;11.30;90.74
17785;BME280;9016;53.582;10.062;2022-12-20T09:11:07;101112.25;;;11.24;91.08
17785;BME280;9016;53.582;10.062;2022-12-20T09:13:35;101121.28;;;11.37;90.78
17785;BME280;9016;53.582;10.062;2022-12-20T09:16:11;101119.97;;;11.44;89.79
17785;BME280;9016;53.582;10.062;2022-12-20T09:18:39;101117.19;;;11.46;89.06
17785;BME280;9016;53.582;10.062;2022-12-20T09:21:09;101126.66;;;11.51;89.51
17785;BME280;9016;53.582;10.062;2022-12-20T09:23:38;101123.63;;;11.57;89.28
17785;BME280;9016;53.582;10.062;2022-12-20T09:26:10;101130.03;;;11.70;88.63
17785;BME280;9016;53.582;10.062;2022-12-20T09:28:39;101126.91;;;11.78;87.62
17785;BME280;9016;53.582;10.062;2022-12-20T09:31:10;101132.59;;;11.72;87.53
17785;BME280;9016;53.582;10.062;2022-12-20T09:33:38;101127.47;;;11.83;87.68
17785;BME280;9016;53.582;10.062;2022-12-20T09:36:09;101129.66;;;11.76;86.29
17785;BME280;9016;53.582;10.062;2022-12-20T09:38:38;101117.56;;;11.85;87.33
17785;BME280;9016;53.582;10.062;2022-12-20T09:41:15;101123.88;;;11.84;86.36
17785;BME280;9016;53.582;10.062;2022-12-20T09:43:48;101129.06;;;11.71;86.41
17785;BME280;9016;53.582;10.062;2022-12-20T09:46:16;101124.41;;;11.75;86.77
17785;BME280;9016;53.582;10.062;2022-12-20T09:48:45;101136.06;;;11.88;86.54
17785;BME280;9016;53.582;10.062;2022-12-20T09:51:22;101125.81;;;11.96;85.76
17785;BME280;9016;53.582;10.062;2022-12-20T09:54:06;101135.91;;;11.91;85.73
17785;BME280;9016;53.582;10.062;2022-12-20T09:56:39;101116.34;;;11.90;85.85
17785;BME280;9016;53.582;10.062;2022-12-20T09:59:11;101121.13;;;11.85;86.14
17785;BME280;9016;53.582;10.062;2022-12-20T10:01:43;101126.38;;;12.01;86.37
17785;BME280;9016;53.582;10.062;2022-12-20T10:04:19;101119.13;;;12.03;85.21
17785;BME280;9016;53.582;10.062;2022-12-20T10:06:59;101116.31;;;12.06;85.59
17785;BME280;9016;53.582;10.062;2022-12-20T10:09:51;101119.44;;;12.13;85.86
17785;BME280;9016;53.582;10.062;2022-12-20T10:12:31;101109.06;;;12.22;86.54
17785;BME280;9016;53.582;10.062;2022-12-20T10:15:16;101094.19;;;12.18;86.80
17785;BME280;9016;53.582;10.062;2022-12-20T10:20:53;101088.56;;;12.23;88.02
17785;BME280;9016;53.582;10.062;2022-12-20T10:23:27;101085.78;;;12.38;87.75
17785;BME280;9016;53.582;10.062;2022-12-20T10:25:59;101089.50;;;12.50;87.21
17785;BME280;9016;53.582;10.062;2022-12-20T10:28:32;101081.50;;;12.36;86.01
17785;BME280;9016;53.582;10.062;2022-12-20T10:31:02;101079.00;;;12.33;86.11
17785;BME280;9016;53.582;10.062;2022-12-20T10:33:32;101058.97;;;12.40;85.32
17785;BME280;9016;53.582;10.062;2022-12-20T10:36:21;101062.59;;;12.39;85.13
17785;BME280;9016;53.582;10.062;2022-12-20T10:38:53;101061.47;;;12.43;85.35
17785;BME280;9016;53.582;10.062;2022-12-20T10:41:25;101055.03;;;12.45;84.62
17785;BME280;9016;53.582;10.062;2022-12-20T10:43:58;101055.31;;;12.55;83.69
17785;BME280;9016;53.582;10.062;2022-12-20T10:46:35;101060.28;;;12.61;83.54
17785;BME280;9016;53.582;10.062;2022-12-20T10:49:25;101058.84;;;12.69;82.82
17785;BME280;9016;53.582;10.062;2022-12-20T10:51:55;101054.94;;;12.61;82.14
17785;BME280;9016;53.582;10.062;2022-12-20T10:54:28;101063.25;;;12.56;82.82
17785;BME280;9016;53.582;10.062;2022-12-20T10:56:59;101053.91;;;12.63;82.25
17785;BME280;9016;53.582;10.062;2022-12-20T10:59:34;101049.72;;;12.59;82.76
17785;BME280;9016;53.582;10.062;2022-12-20T11:02:23;101044.03;;;12.64;82.51
17785;BME280;9016;53.582;10.062;2022-12-20T11:04:58;101037.34;;;12.71;82.48
17785;BME280;9016;53.582;10.062;2022-12-20T11:07:29;101037.88;;;12.63;82.29
17785;BME280;9016;53.582;10.062;2022-12-20T11:09:59;101036.34;;;12.59;81.76
17785;BME280;9016;53.582;10.062;2022-12-20T11:12:27;101040.53;;;12.49;81.78
17785;BME280;9016;53.582;10.062;2022-12-20T11:15:09;101037.56;;;12.40;82.11
17785;BME280;9016;53.582;10.062;2022-12-20T11:17:42;101027.47;;;12.45;82.00
17785;BME280;9016;53.582;10.062;2022-12-20T11:20:28;101018.88;;;12.40;82.26
17785;BME280;9016;53.582;10.062;2022-12-20T11:23:08;101000.38;;;12.37;81.73
17785;BME280;9016;53.582;10.062;2022-12-20T11:25:49;101014.19;;;12.43;82.10
17785;BME280;9016;53.582;10.062;2022-12-20T11:28:35;101013.34;;;12.43;81.32
17785;BME280;9016;53.582;10.062;2022-12-20T11:31:15;101016.78;;;12.45;81.63
17785;BME280;9016;53.582;10.062;2022-12-20T11:33:55;101014.59;;;12.37;82.16
17785;BME280;9016;53.582;10.062;2022-12-20T11:36:35;101000.56;;;12.34;82.29
17785;BME280;9016;53.582;10.062;2022-12-20T11:39:18;100998.66;;;12.36;81.59
17785;BME280;9016;53.582;10.062;2022-12-20T11:41:58;100991.38;;;12.38;81.73
17785;BME280;9016;53.582;10.062;2022-12-20T11:44:48;100990.31;;;12.54;80.97
17785;BME280;9016;53.582;10.062;2022-12-20T11:47:53;100978.78;;;12.54;80.29
17785;BME280;9016;53.582;10.062;2022-12-20T11:50:39;100980.69;;;12.52;79.87
17785;BME280;9016;53.582;10.062;2022-12-20T11:53:12;100985.72;;;12.56;80.31
17785;BME280;9016;53.582;10.062;2022-12-20T11:55:45;100976.75;;;12.57;80.39
17785;BME280;9016;53.582;10.062;2022-12-20T11:58:17;100956.78;;;12.63;78.62
17785;BME280;9016;53.582;10.062;2022-12-20T12:00:52;100975.19;;;12.67;78.76
17785;BME280;9016;53.582;10.062;2022-12-20T12:03:27;100969.44;;;12.73;78.01
17785;BME280;9016;53.582;10.062;2022-12-20T12:05:59;100972.22;;;12.72;77.74
17785;BME280;9016;53.582;10.062;2022-12-20T12:08:35;100969.56;;;12.72;77.68
17785;BME280;9016;53.582;10.062;2022-12-20T12:11:10;100970.81;;;12.66;77.75
17785;BME280;9016;53.582;10.062;2022-12-20T12:14:01;100977.22;;;12.64;78.02
17785;BME280;9016;53.582;10.062;2022-12-20T12:16:33;100975.19;;;12.67;77.93
17785;BME280;9016;53.582;10.062;2022-12-20T12:19:07;100976.31;;;12.77;77.61
17785;BME280;9016;53.582;10.062;2022-12-20T12:21:41;100974.81;;;12.73;77.45
17785;BME280;9016;53.582;10.062;2022-12-20T12:24:18;100974.19;;;12.82;77.77
17785;BME280;9016;53.582;10.062;2022-12-20T12:26:50;100973.88;;;12.74;77.82
17785;BME280;9016;53.582;10.062;2022-12-20T12:29:20;100973.75;;;12.76;78.02
17785;BME280;9016;53.582;10.062;2022-12-20T12:31:52;100967.66;;;12.74;77.96
17785;BME280;9016;53.582;10.062;2022-12-20T12:34:32;100966.34;;;12.67;78.05
17785;BME280;9016;53.582;10.062;2022-12-20T12:40:11;100968.25;;;12.51;79.84
17785;BME280;9016;53.582;10.062;2022-12-20T12:42:55;100958.66;;;12.48;80.73
17785;BME280;9016;53.582;10.062;2022-12-20T12:45:31;100943.00;;;12.42;82.07
17785;BME280;9016;53.582;10.062;2022-12-20T12:48:06;100938.25;;;12.33;83.31
17785;BME280;9016;53.582;10.062;2022-12-20T12:50:43;100946.34;;;12.46;84.13
17785;BME280;9016;53.582;10.062;2022-12-20T12:53:14;100937.59;;;12.56;84.10
17785;BME280;9016;53.582;10.062;2022-12-20T12:55:44;100936.78;;;12.56;83.91
17785;BME280;9016;53.582;10.062;2022-12-20T13:00:58;100938.22;;;12.47;85.07
17785;BME280;9016;53.582;10.062;2022-12-20T13:09:48;100922.38;;;12.44;86.43
17785;BME280;9016;53.582;10.062;2022-12-20T13:12:47;100910.16;;;12.40;86.25
17785;BME280;9016;53.582;10.062;2022-12-20T13:15:50;100922.44;;;12.30;87.24
17785;BME280;9016;53.582;10.062;2022-12-20T13:18:26;100908.97;;;12.32;87.30
17785;BME280;9016;53.582;10.062;2022-12-20T13:27:16;100917.09;;;12.16;87.04
17785;BME280;9016;53.582;10.062;2022-12-20T13:36:02;100904.22;;;12.23;87.48
17785;BME280;9016;53.582;10.062;2022-12-20T13:38:49;100912.31;;;12.21;87.43
17785;BME280;9016;53.582;10.062;2022-12-20T13:41:34;100916.06;;;12.05;88.53
17785;BME280;9016;53.582;10.062;2022-12-20T13:44:20;100919.41;;;12.08;89.52